Loging...

KPDC, Korea Polar Data Center

Korea Polar Data Center Scientific observations and results from Antarctica shall
be exchanged and made freely available

Keyword Search

Advanced Search

Search 29,161 data out of 29,189

Metadata Search Results1
No. Title Reg. Date
1 [KOPRI-KPDC-00001890]ARAON Arctic Seismic Survey Track Lines(2013-2021) GIS Data sets 2021-12-02
2 [KOPRI-KPDC-00001871]ARA12C Sparker single-channel seismic survey data 2021-12-02
3 [KOPRI-KPDC-00001409]ARA10C Multi-Channel Seismic Survey Data 2021-12-02
4 [KOPRI-KPDC-00001880]Meteorological data of Nord site in 2021 2021-11-30
5 [KOPRI-KPDC-00001889]Meteorological data of Baranova, Russia site in 2021 2021-11-30
6 [KOPRI-KPDC-00001888]Meteorological data of Cambridge Bay site in Canada in 2021 2021-11-30
7 [KOPRI-KPDC-00001887]Soil Temperature and Moisture at Kougarok site, Alaska in 2019, 2020, 2021 2021-11-30
8 [KOPRI-KPDC-00001886]Soil Temperature of Manual Chamber site of the Council, Alaska for 2019 and 2020 2021-11-30
9 [KOPRI-KPDC-00001885]Soil temperature data from active layer of Council, Alaska permafrost site in 2021 2021-11-30
10 [KOPRI-KPDC-00001884]CH4 data from active layer of Council, Alaska permafrost site in 2021 2021-11-30
11 [KOPRI-KPDC-00001883]Volumetric water content data from active layer of Council, Alaska permafrost site in 2021 2021-11-30
12 [KOPRI-KPDC-00001882]CO2 data from active layer of Council, Alaska permafrost site in 2021 2021-11-30
13 [KOPRI-KPDC-00001881]Meteorological data of DASAN station in 2021 2021-11-29
14 [KOPRI-KPDC-00001879]Soil temperature and moisture content data collected from summer climate manipulation plots in Cambridge Bay, Canada from 06/2019 to 09/2021 2021-11-29
15 [KOPRI-KPDC-00001878]Air temperature and humidity data collected from summer climate manipulation plots in Cambridge Bay, Canada from 06/2019 to 09/2021 2021-11-29
16 [KOPRI-KPDC-00001877]Soil temperature and moisture data collected from winter climate manipulation plots in Cambridge Bay, Canada from 06/2019 to 09/2021 2021-11-29
17 [KOPRI-KPDC-00001507]Ionospheric scintillation, Dasan Station, 2020 2021-11-26
18 [KOPRI-KPDC-00001631]Foraging trips of Adélie penguin breeding at Adélie Cove on December 2018 2021-11-25
19 [KOPRI-KPDC-00001493]Neutral wind and temperature, King Sejong Station, 2020 2021-11-25
20 [KOPRI-KPDC-00001488]Neutral wind and temperature (MR), King Sejong Station, 2020 2021-11-25
21 [KOPRI-KPDC-00001811]Neutral wind and temperature (MR), King Sejong Station, 2021 2021-11-25
22 [KOPRI-KPDC-00001506]Ionospheric scintillation, Kiruna Sweden, 2020 2021-11-25
23 [KOPRI-KPDC-00001494]Ionospheric scintillation, King Sejong Station, 2020 2021-11-25
24 [KOPRI-KPDC-00001505]All-sky airglow image, King Sejong Station, 2020 2021-11-25
25 [KOPRI-KPDC-00001489]Geomagnetic field, King Sejong Station, 2020 2021-11-25
26 [KOPRI-KPDC-00001490]Mesospheric temperature, Kiruna Sweden, 2020 2021-11-25
27 [KOPRI-KPDC-00001491]Neutral wind and temperature, Kiruna Sweden, 2020 2021-11-25
28 [KOPRI-KPDC-00001492]Neutral wind and temperature, Dasan Station, 2020 2021-11-25
29 [KOPRI-KPDC-00001508]All-sky aurora (proton) image, KHO Longyearbyen, 2020 2021-11-25
30 [KOPRI-KPDC-00001812]Ionospheric scintillation, Dasan Station, 2021 2021-11-25
31 [KOPRI-KPDC-00001815]Ionospheric scintillation, Kiruna Sweden, 2021 2021-11-25
32 [KOPRI-KPDC-00001814]Ionospheric scintillation, King Sejong Station, 2021 2021-11-25
33 [KOPRI-KPDC-00001813]Neutral wind and temperature, King Sejong Station, 2021 2021-11-25
34 [KOPRI-KPDC-00001817]All-sky airglow image, King Sejong Station, 2021 2021-11-23
35 [KOPRI-KPDC-00001818]Neutral wind and temperature, Kiruna Sweden, 2021 2021-11-23
36 [KOPRI-KPDC-00001816]Geomagnetic field, King Sejong Station, 2021 2021-11-23
37 [KOPRI-KPDC-00001876]ARA12C Sub-bottom profiler(SBP) data 2021-11-23
38 [KOPRI-KPDC-00001875]ARA12C Multibeam data 2021-11-23
39 [KOPRI-KPDC-00001874]ARA12C Manganese nodule samples data 2021-11-23
40 [KOPRI-KPDC-00001873]ARA12C sediment cores(MUC,BXC) data 2021-11-23
41 [KOPRI-KPDC-00001872]Meteorological data of Council, Alaska site in 2021 2021-11-19
42 [KOPRI-KPDC-00001707]Concentration of individual compounds in the seawater of the Kongsfjorden in Svalbard, April 2018. 2021-11-10
43 [KOPRI-KPDC-00001870]Bacterial and archaeal genome sequence data from anaerobically incubated permafrost soil (Alaska) 2021-11-09
44 [KOPRI-ROCK-00002169]DY1101-04-2 2021-11-02
45 [KOPRI-ROCK-00002168]DY181101-04 2021-11-02
46 [KOPRI-ROCK-00002167]DY181101-03 2021-11-02
47 [KOPRI-ROCK-00002166]DY181101-02 2021-11-02
48 [KOPRI-ROCK-00002165]DY181101-01 2021-11-02
49 [KOPRI-ROCK-00002164]DY181031-05 2021-11-02
50 [KOPRI-ROCK-00002163]DY181031-04 2021-11-02
51 [KOPRI-ROCK-00002162]DY181031-03 2021-11-02
52 [KOPRI-ROCK-00002161]DY181031-02 2021-11-02
53 [KOPRI-ROCK-00002160]DY181031-01 2021-11-02
54 [KOPRI-KPDC-00001869]Molecular characteristics of Arctic aerosols at Gruvebadet observatory, Svalbard in 2017 2021-11-02
55 [KOPRI-KPDC-00001171]Hydroacoustic data in Terra Nova Bay, 2018 2021-10-15
56 [KOPRI-KPDC-00000830]Hydroacoustic data, Balleny Islands, 2015 2021-10-15
57 [KOPRI-KPDC-00000899]Hydroacoustic data in Terra Nova Bay, 2017 2021-10-15
58 [KOPRI-KPDC-00000750]Hydroacoustic data in Terra Nova Bay, 2016 2021-10-14
59 [KOPRI-KPDC-00001867]Soil samples and their basic properties in Adventdalen, Svalbard, 2021 2021-10-14
60 [KOPRI-KPDC-00001866]Atmospheric Sulfur Dioxide at the surface of Jang Bogo station in 2020 2021-10-14
61 [KOPRI-KPDC-00001865]Atmospheric Nitrogen Oxides at the surface of Jang Bogo station in 2020 2021-10-14
62 [KOPRI-KPDC-00001864]Weddell Seal Placenta Sample (JBG-211009) 2021-10-13
63 [KOPRI-KPDC-00001863]Weddell Seal Placental Sample (JBG-211011-2) 2021-10-13
64 [KOPRI-KPDC-00001862]Weddell Seal Placenta Sample (JBG-211011-1) 2021-10-13
65 [KOPRI-KPDC-00001773]Genes involved in adaptation to marine environment in Cetacean (CYP19A1 gene) 2021-10-13
66 [KOPRI-KPDC-00001628]Weather forecasts over the Arctic region 2021-10-12
67 [KOPRI-KPDC-00001559]High-resolution melt pond image from UAV 2021-10-12
68 [KOPRI-KPDC-00001860]Photosynthetic response of Antarctic lichen Usnea under controlled dehydration and rehydration condition 2021-10-10
69 [KOPRI-KPDC-00001859]Photosynthetic response of Antarctic lichen Stereocaulon under controlled dehydration and rehydration condition 2021-10-10
70 [KOPRI-KPDC-00001856]Geomagnetic field, Jang Bogo Station, 2021 2021-10-10
71 [KOPRI-KPDC-00001855]Ionospheric scintillation, Jang Bogo Station, 2021 2021-10-10
72 [KOPRI-KPDC-00001854]Neutron count, Jang Bogo Station, 2021 2021-10-10
73 [KOPRI-KPDC-00001853]Electron density, plasma drift, Jang Bogo Station, 2021 2021-10-10
74 [KOPRI-KPDC-00001852]Neutral wind and temperature, Jang Bogo Station, 2021 2021-10-10
75 [KOPRI-KPDC-00001851]All-sky aurora (electron) image, Jang Bogo Station, 2021 2021-10-10
76 [KOPRI-KPDC-00001850]Continuous monitoring of pCO2 and its relevant parameters in the coast of the Jang Bogo Station, Antarctica 2021-10-10
77 [KOPRI-KPDC-00001848]Trace elements in Hercules Neve snow pit 2021-10-10
78 [KOPRI-KPDC-00001847]Trace elements in GV7 snow pit 2021-10-10
79 [KOPRI-KPDC-00001846]Major ionic species measured at ice core from Tourmaline Plateau 2021-10-10
80 [KOPRI-KPDC-00001845]Rn gas data measured at JBS during 2021 2021-10-10
81 [KOPRI-KPDC-00001844]Rn gas data measured at KSG during 2021 2021-10-10
82 [KOPRI-KPDC-00001842]RS21-GC06 2021-10-10
83 [KOPRI-KPDC-00001841]RS21-GC05 2021-10-10
84 [KOPRI-KPDC-00001839]RS21-GC01 2021-10-10
85 [KOPRI-KPDC-00001840]RS21-GC04 2021-10-10
86 [KOPRI-KPDC-00001836]RS21-GC02 2021-10-10
87 [KOPRI-KPDC-00001835]RS21-GC03 2021-10-10
88 [KOPRI-KPDC-00001833]Arctic migratory Korea wintering birds individual metadata obtained from 2020 to 2021 2021-10-10
89 [KOPRI-KPDC-00001832]Antarctic macroalgal specimen registration list (2021) 2021-10-10
90 [KOPRI-KPDC-00001831]Marian Cove 2021 benthic survey image list 2021-10-10
91 [KOPRI-KPDC-00001827]Atmospheric Ensemble Reanalysis 2021-10-10
92 [KOPRI-KPDC-00001822]Land Seismic Data at David Glacier (D2 subglacier lake) in 2019 2021-10-10
93 [KOPRI-KPDC-00001821]Nucleotide sequence of terpene synthase genes and GC analysis data of terpenoid in Antarctic moss, Sanionia uncinata 2021-10-10
94 [KOPRI-KPDC-00001820]Metagenomic Analysis of Fungal Communities 2021-10-10
95 [KOPRI-KPDC-00001819]Metagenomic Analysis of Bacterial Communities 2021-10-10
96 [KOPRI-KPDC-00001810]Global surface air temperature for the 2000 - 2019 winter from the CAM6 hindcast simulation 2021-10-10
97 [KOPRI-KPDC-00001809]mRNA sequencing data of lab culture Sanionia uncinata 2021-10-10
98 [KOPRI-KPDC-00001804]Air temperature, air humidity, PAR, substrate temperature, and substrate humidity data from Barton Peninsular in King George Island collected in 2020 2021-10-10
99 [KOPRI-KPDC-00001801]Ecological index of benthic animals in Ross Sea, Antarctica 2021-10-10
100 [KOPRI-KPDC-00001800]Species list and coverage of benthic animals in Ross Sea, Antarctica 2021-10-10